sensor_id;sensor_type;location;lat;lon;timestamp;temperature;humidity
70695;DHT22;58269;52.246;21.104;2022-12-29T00:00:00;9.18;57.65
70695;DHT22;58269;52.246;21.104;2022-12-29T00:02:03;8.78;57.31
70695;DHT22;58269;52.246;21.104;2022-12-29T00:04:04;8.41;59.65
70695;DHT22;58269;52.246;21.104;2022-12-29T00:06:08;8.22;58.48
70695;DHT22;58269;52.246;21.104;2022-12-29T00:08:09;8.02;61.39
70695;DHT22;58269;52.246;21.104;2022-12-29T00:10:11;7.84;61.61
70695;DHT22;58269;52.246;21.104;2022-12-29T00:12:12;7.68;61.92
70695;DHT22;58269;52.246;21.104;2022-12-29T00:14:13;7.57;62.46
70695;DHT22;58269;52.246;21.104;2022-12-29T00:16:34;8.20;62.06
70695;DHT22;58269;52.246;21.104;2022-12-29T00:18:36;9.42;64.39
70695;DHT22;58269;52.246;21.104;2022-12-29T00:20:38;10.14;60.20
70695;DHT22;58269;52.246;21.104;2022-12-29T00:22:58;9.77;56.42
70695;DHT22;58269;52.246;21.104;2022-12-29T00:25:18;9.21;57.73
70695;DHT22;58269;52.246;21.104;2022-12-29T00:27:38;8.82;58.27
70695;DHT22;58269;52.246;21.104;2022-12-29T00:29:44;8.51;58.90
70695;DHT22;58269;52.246;21.104;2022-12-29T00:32:07;8.26;59.67
70695;DHT22;58269;52.246;21.104;2022-12-29T00:34:28;8.06;60.44
70695;DHT22;58269;52.246;21.104;2022-12-29T00:36:47;7.91;61.77
70695;DHT22;58269;52.246;21.104;2022-12-29T00:38:55;7.77;61.62
70695;DHT22;58269;52.246;21.104;2022-12-29T00:41:14;7.81;63.38
70695;DHT22;58269;52.246;21.104;2022-12-29T00:43:35;9.05;60.15
70695;DHT22;58269;52.246;21.104;2022-12-29T00:45:55;9.90;57.11
70695;DHT22;58269;52.246;21.104;2022-12-29T00:47:57;9.64;56.89
70695;DHT22;58269;52.246;21.104;2022-12-29T00:49:58;9.22;57.16
70695;DHT22;58269;52.246;21.104;2022-12-29T00:52:04;8.84;58.02
70695;DHT22;58269;52.246;21.104;2022-12-29T00:54:05;8.51;59.75
70695;DHT22;58269;52.246;21.104;2022-12-29T00:56:06;8.27;60.56
70695;DHT22;58269;52.246;21.104;2022-12-29T00:58:08;8.12;58.89
70695;DHT22;58269;52.246;21.104;2022-12-29T01:00:11;7.94;60.20
70695;DHT22;58269;52.246;21.104;2022-12-29T01:02:12;7.84;61.44
70695;DHT22;58269;52.246;21.104;2022-12-29T01:04:14;7.74;62.36
70695;DHT22;58269;52.246;21.104;2022-12-29T01:06:15;7.62;62.73
70695;DHT22;58269;52.246;21.104;2022-12-29T01:08:16;8.13;63.24
70695;DHT22;58269;52.246;21.104;2022-12-29T01:10:17;9.36;66.16
70695;DHT22;58269;52.246;21.104;2022-12-29T01:12:19;10.18;56.99
70695;DHT22;58269;52.246;21.104;2022-12-29T01:14:23;10.12;56.04
70695;DHT22;58269;52.246;21.104;2022-12-29T01:16:24;9.59;56.40
70695;DHT22;58269;52.246;21.104;2022-12-29T01:18:26;9.12;57.90
70695;DHT22;58269;52.246;21.104;2022-12-29T01:20:27;8.74;58.96
70695;DHT22;58269;52.246;21.104;2022-12-29T01:22:29;8.44;59.04
70695;DHT22;58269;52.246;21.104;2022-12-29T01:24:30;8.22;59.75
70695;DHT22;58269;52.246;21.104;2022-12-29T01:26:32;8.04;59.80
70695;DHT22;58269;52.246;21.104;2022-12-29T01:28:33;7.86;60.61
70695;DHT22;58269;52.246;21.104;2022-12-29T01:30:35;7.72;62.12
70695;DHT22;58269;52.246;21.104;2022-12-29T01:32:36;7.64;62.21
70695;DHT22;58269;52.246;21.104;2022-12-29T01:34:37;7.53;61.72
70695;DHT22;58269;52.246;21.104;2022-12-29T01:36:39;8.16;62.19
70695;DHT22;58269;52.246;21.104;2022-12-29T01:38:41;9.32;66.20
70695;DHT22;58269;52.246;21.104;2022-12-29T01:40:48;9.83;55.91
70695;DHT22;58269;52.246;21.104;2022-12-29T01:42:46;9.51;56.40
70695;DHT22;58269;52.246;21.104;2022-12-29T01:44:56;8.99;57.53
70695;DHT22;58269;52.246;21.104;2022-12-29T01:46:57;8.57;58.35
70695;DHT22;58269;52.246;21.104;2022-12-29T01:49:17;8.33;59.16
70695;DHT22;58269;52.246;21.104;2022-12-29T01:51:20;8.05;59.01
70695;DHT22;58269;52.246;21.104;2022-12-29T01:53:25;7.88;60.06
70695;DHT22;58269;52.246;21.104;2022-12-29T01:55:29;7.72;58.78
70695;DHT22;58269;52.246;21.104;2022-12-29T01:57:34;7.62;61.85
70695;DHT22;58269;52.246;21.104;2022-12-29T01:59:39;7.51;61.49
70695;DHT22;58269;52.246;21.104;2022-12-29T02:01:41;7.41;61.97
70695;DHT22;58269;52.246;21.104;2022-12-29T02:03:43;7.35;62.19
70695;DHT22;58269;52.246;21.104;2022-12-29T02:07:55;8.72;67.85
70695;DHT22;58269;52.246;21.104;2022-12-29T02:09:56;9.54;57.55
70695;DHT22;58269;52.246;21.104;2022-12-29T02:11:59;9.36;56.92
70695;DHT22;58269;52.246;21.104;2022-12-29T02:14:00;8.95;57.87
70695;DHT22;58269;52.246;21.104;2022-12-29T02:16:10;8.58;58.88
70695;DHT22;58269;52.246;21.104;2022-12-29T02:32:01;8.75;63.34
70695;DHT22;58269;52.246;21.104;2022-12-29T02:34:37;9.93;60.19
70695;DHT22;58269;52.246;21.104;2022-12-29T02:36:51;10.27;55.93
70695;DHT22;58269;52.246;21.104;2022-12-29T02:39:04;9.70;56.27
70695;DHT22;58269;52.246;21.104;2022-12-29T02:41:21;9.12;57.46
70695;DHT22;58269;52.246;21.104;2022-12-29T02:43:36;8.65;59.24
70695;DHT22;58269;52.246;21.104;2022-12-29T02:45:41;8.36;60.43
70695;DHT22;58269;52.246;21.104;2022-12-29T02:49:52;7.92;60.43
70695;DHT22;58269;52.246;21.104;2022-12-29T02:52:01;7.72;62.96
70695;DHT22;58269;52.246;21.104;2022-12-29T02:53:59;8.33;61.67
70695;DHT22;58269;52.246;21.104;2022-12-29T02:56:19;9.47;58.68
70695;DHT22;58269;52.246;21.104;2022-12-29T02:58:22;9.47;57.88
70695;DHT22;58269;52.246;21.104;2022-12-29T03:00:24;8.98;58.97
70695;DHT22;58269;52.246;21.104;2022-12-29T03:04:57;8.16;60.33
70695;DHT22;58269;52.246;21.104;2022-12-29T03:07:04;7.88;59.93
70695;DHT22;58269;52.246;21.104;2022-12-29T03:09:36;7.69;63.45
70695;DHT22;58269;52.246;21.104;2022-12-29T03:11:40;8.75;68.36
70695;DHT22;58269;52.246;21.104;2022-12-29T03:17:28;9.71;57.84
70695;DHT22;58269;52.246;21.104;2022-12-29T03:18:46;9.15;57.36
70695;DHT22;58269;52.246;21.104;2022-12-29T03:20:52;8.67;60.38
70695;DHT22;58269;52.246;21.104;2022-12-29T03:22:59;8.29;58.99
70695;DHT22;58269;52.246;21.104;2022-12-29T03:25:20;7.99;59.78
70695;DHT22;58269;52.246;21.104;2022-12-29T03:27:25;7.75;63.71
70695;DHT22;58269;52.246;21.104;2022-12-29T03:29:27;8.32;64.44
70695;DHT22;58269;52.246;21.104;2022-12-29T03:31:30;9.40;63.16
70695;DHT22;58269;52.246;21.104;2022-12-29T03:33:32;10.28;66.14
70695;DHT22;58269;52.246;21.104;2022-12-29T03:35:36;10.73;56.76
70695;DHT22;58269;52.246;21.104;2022-12-29T03:37:49;10.43;56.78
70695;DHT22;58269;52.246;21.104;2022-12-29T03:39:49;9.79;55.57
70695;DHT22;58269;52.246;21.104;2022-12-29T03:41:54;9.23;55.57
70695;DHT22;58269;52.246;21.104;2022-12-29T03:43:55;8.75;59.57
70695;DHT22;58269;52.246;21.104;2022-12-29T03:45:57;8.35;56.78
70695;DHT22;58269;52.246;21.104;2022-12-29T03:47:58;8.01;58.19
70695;DHT22;58269;52.246;21.104;2022-12-29T03:50:00;7.80;57.74
70695;DHT22;58269;52.246;21.104;2022-12-29T03:52:03;7.54;57.94
70695;DHT22;58269;52.246;21.104;2022-12-29T03:54:05;7.34;58.12
70695;DHT22;58269;52.246;21.104;2022-12-29T03:56:07;7.14;58.09
70695;DHT22;58269;52.246;21.104;2022-12-29T03:58:08;6.98;58.97
70695;DHT22;58269;52.246;21.104;2022-12-29T04:00:18;7.22;63.94
70695;DHT22;58269;52.246;21.104;2022-12-29T04:02:21;8.33;66.65
70695;DHT22;58269;52.246;21.104;2022-12-29T04:04:23;9.40;70.38
70695;DHT22;58269;52.246;21.104;2022-12-29T04:06:24;9.81;58.96
70695;DHT22;58269;52.246;21.104;2022-12-29T04:08:31;9.56;59.10
70695;DHT22;58269;52.246;21.104;2022-12-29T04:10:33;8.98;57.66
70695;DHT22;58269;52.246;21.104;2022-12-29T04:12:38;8.46;57.58
70695;DHT22;58269;52.246;21.104;2022-12-29T04:14:40;7.99;57.53
70695;DHT22;58269;52.246;21.104;2022-12-29T04:16:41;7.68;57.96
70695;DHT22;58269;52.246;21.104;2022-12-29T04:18:43;7.37;61.55
70695;DHT22;58269;52.246;21.104;2022-12-29T04:20:44;7.30;64.33
70695;DHT22;58269;52.246;21.104;2022-12-29T04:23:04;8.12;68.41
70695;DHT22;58269;52.246;21.104;2022-12-29T04:25:07;9.19;71.24
70695;DHT22;58269;52.246;21.104;2022-12-29T04:27:11;10.02;71.21
70695;DHT22;58269;52.246;21.104;2022-12-29T04:29:17;10.49;69.29
70695;DHT22;58269;52.246;21.104;2022-12-29T04:31:23;10.63;57.77
70695;DHT22;58269;52.246;21.104;2022-12-29T04:33:25;10.25;57.09
70695;DHT22;58269;52.246;21.104;2022-12-29T04:35:28;9.59;56.43
70695;DHT22;58269;52.246;21.104;2022-12-29T04:37:29;8.95;58.28
70695;DHT22;58269;52.246;21.104;2022-12-29T04:39:32;8.37;60.37
70695;DHT22;58269;52.246;21.104;2022-12-29T04:41:35;8.01;59.65
70695;DHT22;58269;52.246;21.104;2022-12-29T04:43:36;7.64;57.69
70695;DHT22;58269;52.246;21.104;2022-12-29T04:45:44;7.35;57.16
70695;DHT22;58269;52.246;21.104;2022-12-29T04:47:47;7.16;61.98
70695;DHT22;58269;52.246;21.104;2022-12-29T04:50:02;7.95;65.38
70695;DHT22;58269;52.246;21.104;2022-12-29T04:52:05;8.91;67.02
70695;DHT22;58269;52.246;21.104;2022-12-29T04:54:09;9.63;66.47
70695;DHT22;58269;52.246;21.104;2022-12-29T04:56:11;9.93;63.48
70695;DHT22;58269;52.246;21.104;2022-12-29T04:58:13;9.70;59.11
70695;DHT22;58269;52.246;21.104;2022-12-29T05:00:14;9.07;58.48
70695;DHT22;58269;52.246;21.104;2022-12-29T05:02:16;8.51;57.25
70695;DHT22;58269;52.246;21.104;2022-12-29T05:04:19;8.06;58.72
70695;DHT22;58269;52.246;21.104;2022-12-29T05:06:21;7.68;60.40
70695;DHT22;58269;52.246;21.104;2022-12-29T05:08:23;7.33;60.37
70695;DHT22;58269;52.246;21.104;2022-12-29T05:10:26;7.09;59.44
70695;DHT22;58269;52.246;21.104;2022-12-29T05:12:34;7.09;63.80
70695;DHT22;58269;52.246;21.104;2022-12-29T05:14:34;7.77;66.37
70695;DHT22;58269;52.246;21.104;2022-12-29T05:16:37;8.71;69.33
70695;DHT22;58269;52.246;21.104;2022-12-29T05:18:39;9.39;67.94
70695;DHT22;58269;52.246;21.104;2022-12-29T05:20:41;9.86;59.75
70695;DHT22;58269;52.246;21.104;2022-12-29T05:22:43;10.33;65.77
70695;DHT22;58269;52.246;21.104;2022-12-29T05:24:44;10.61;61.07
70695;DHT22;58269;52.246;21.104;2022-12-29T05:26:46;10.66;57.59
70695;DHT22;58269;52.246;21.104;2022-12-29T05:28:52;10.02;55.01
70695;DHT22;58269;52.246;21.104;2022-12-29T05:30:54;9.35;55.24
70695;DHT22;58269;52.246;21.104;2022-12-29T05:32:56;8.77;57.02
70695;DHT22;58269;52.246;21.104;2022-12-29T05:34:58;8.22;59.44
70695;DHT22;58269;52.246;21.104;2022-12-29T05:36:59;7.85;57.00
70695;DHT22;58269;52.246;21.104;2022-12-29T05:39:03;7.51;60.93
70695;DHT22;58269;52.246;21.104;2022-12-29T05:41:05;7.47;62.43
70695;DHT22;58269;52.246;21.104;2022-12-29T05:43:23;8.50;63.55
70695;DHT22;58269;52.246;21.104;2022-12-29T05:45:36;9.35;59.80
70695;DHT22;58269;52.246;21.104;2022-12-29T05:47:39;9.94;60.82
70695;DHT22;58269;52.246;21.104;2022-12-29T05:49:42;9.91;57.04
70695;DHT22;58269;52.246;21.104;2022-12-29T05:51:45;9.26;55.09
70695;DHT22;58269;52.246;21.104;2022-12-29T05:53:47;8.65;55.00
70695;DHT22;58269;52.246;21.104;2022-12-29T05:55:50;8.05;60.47
70695;DHT22;58269;52.246;21.104;2022-12-29T05:57:51;7.59;60.48
70695;DHT22;58269;52.246;21.104;2022-12-29T05:59:53;7.31;60.28
70695;DHT22;58269;52.246;21.104;2022-12-29T06:01:54;7.43;64.07
70695;DHT22;58269;52.246;21.104;2022-12-29T06:03:56;8.39;64.31
70695;DHT22;58269;52.246;21.104;2022-12-29T06:05:58;9.18;64.75
70695;DHT22;58269;52.246;21.104;2022-12-29T06:08:00;9.66;63.70
70695;DHT22;58269;52.246;21.104;2022-12-29T06:10:03;9.87;59.18
70695;DHT22;58269;52.246;21.104;2022-12-29T06:12:07;9.30;56.22
70695;DHT22;58269;52.246;21.104;2022-12-29T06:14:08;8.56;58.13
70695;DHT22;58269;52.246;21.104;2022-12-29T06:16:10;8.10;57.94
70695;DHT22;58269;52.246;21.104;2022-12-29T06:18:13;7.72;55.07
70695;DHT22;58269;52.246;21.104;2022-12-29T06:20:14;7.38;57.62
70695;DHT22;58269;52.246;21.104;2022-12-29T06:22:17;7.12;61.26
70695;DHT22;58269;52.246;21.104;2022-12-29T06:24:18;7.07;63.47
70695;DHT22;58269;52.246;21.104;2022-12-29T06:26:20;7.99;62.57
70695;DHT22;58269;52.246;21.104;2022-12-29T06:28:22;8.97;64.25
70695;DHT22;58269;52.246;21.104;2022-12-29T06:30:24;9.56;60.18
70695;DHT22;58269;52.246;21.104;2022-12-29T06:32:26;9.89;61.32
70695;DHT22;58269;52.246;21.104;2022-12-29T06:34:29;9.94;58.53
70695;DHT22;58269;52.246;21.104;2022-12-29T06:36:31;9.35;55.84
70695;DHT22;58269;52.246;21.104;2022-12-29T06:38:32;8.81;53.62
70695;DHT22;58269;52.246;21.104;2022-12-29T06:40:36;8.29;53.79
70695;DHT22;58269;52.246;21.104;2022-12-29T06:42:45;7.81;59.40
70695;DHT22;58269;52.246;21.104;2022-12-29T06:44:48;7.47;60.50
70695;DHT22;58269;52.246;21.104;2022-12-29T06:46:50;7.20;58.71
70695;DHT22;58269;52.246;21.104;2022-12-29T06:48:51;7.04;62.23
70695;DHT22;58269;52.246;21.104;2022-12-29T06:50:53;7.88;64.35
70695;DHT22;58269;52.246;21.104;2022-12-29T06:52:54;8.74;63.96
70695;DHT22;58269;52.246;21.104;2022-12-29T06:54:56;9.29;62.26
70695;DHT22;58269;52.246;21.104;2022-12-29T06:56:57;9.89;63.19
70695;DHT22;58269;52.246;21.104;2022-12-29T06:58:59;10.22;56.80
70695;DHT22;58269;52.246;21.104;2022-12-29T07:01:02;9.97;55.90
70695;DHT22;58269;52.246;21.104;2022-12-29T07:03:03;9.32;55.49
70695;DHT22;58269;52.246;21.104;2022-12-29T07:05:05;8.71;56.16
70695;DHT22;58269;52.246;21.104;2022-12-29T07:07:08;8.29;54.35
70695;DHT22;58269;52.246;21.104;2022-12-29T07:09:10;7.92;57.10
70695;DHT22;58269;52.246;21.104;2022-12-29T07:11:11;7.59;58.51
70695;DHT22;58269;52.246;21.104;2022-12-29T07:13:13;7.38;60.98
70695;DHT22;58269;52.246;21.104;2022-12-29T07:15:14;7.17;57.22
70695;DHT22;58269;52.246;21.104;2022-12-29T07:17:16;6.98;56.37
70695;DHT22;58269;52.246;21.104;2022-12-29T07:19:17;6.83;57.89
70695;DHT22;58269;52.246;21.104;2022-12-29T07:21:19;6.73;56.13
70695;DHT22;58269;52.246;21.104;2022-12-29T07:23:20;6.59;56.00
70695;DHT22;58269;52.246;21.104;2022-12-29T07:25:22;6.52;59.63
70695;DHT22;58269;52.246;21.104;2022-12-29T07:27:23;6.44;57.63
70695;DHT22;58269;52.246;21.104;2022-12-29T07:29:24;6.35;60.40
70695;DHT22;58269;52.246;21.104;2022-12-29T07:31:26;6.31;59.15
70695;DHT22;58269;52.246;21.104;2022-12-29T07:33:30;6.61;65.28
70695;DHT22;58269;52.246;21.104;2022-12-29T07:35:34;7.82;70.65
70695;DHT22;58269;52.246;21.104;2022-12-29T07:37:35;8.97;68.19
70695;DHT22;58269;52.246;21.104;2022-12-29T07:39:36;9.59;59.12
70695;DHT22;58269;52.246;21.104;2022-12-29T07:41:38;9.46;57.33
70695;DHT22;58269;52.246;21.104;2022-12-29T07:43:39;8.92;56.56
70695;DHT22;58269;52.246;21.104;2022-12-29T07:45:59;8.32;56.85
70695;DHT22;58269;52.246;21.104;2022-12-29T07:48:04;7.85;60.66
70695;DHT22;58269;52.246;21.104;2022-12-29T07:50:08;7.62;58.08
70695;DHT22;58269;52.246;21.104;2022-12-29T07:52:09;7.40;56.28
70695;DHT22;58269;52.246;21.104;2022-12-29T07:54:10;7.22;60.99
70695;DHT22;58269;52.246;21.104;2022-12-29T07:56:13;7.07;57.41
70695;DHT22;58269;52.246;21.104;2022-12-29T07:58:15;6.95;58.47
70695;DHT22;58269;52.246;21.104;2022-12-29T08:00:16;6.96;62.56
70695;DHT22;58269;52.246;21.104;2022-12-29T08:02:18;7.91;64.29
70695;DHT22;58269;52.246;21.104;2022-12-29T08:04:19;9.15;69.00
70695;DHT22;58269;52.246;21.104;2022-12-29T08:06:21;10.02;69.59
70695;DHT22;58269;52.246;21.104;2022-12-29T08:08:23;10.63;68.74
70695;DHT22;58269;52.246;21.104;2022-12-29T08:10:24;11.07;67.26
70695;DHT22;58269;52.246;21.104;2022-12-29T08:12:25;11.40;65.86
70695;DHT22;58269;52.246;21.104;2022-12-29T08:14:26;11.55;63.75
70695;DHT22;58269;52.246;21.104;2022-12-29T08:16:28;11.55;56.72
70695;DHT22;58269;52.246;21.104;2022-12-29T08:18:29;11.04;54.40
70695;DHT22;58269;52.246;21.104;2022-12-29T08:20:31;10.38;52.92
70695;DHT22;58269;52.246;21.104;2022-12-29T08:22:32;9.83;52.30
70695;DHT22;58269;52.246;21.104;2022-12-29T08:24:34;9.36;53.94
70695;DHT22;58269;52.246;21.104;2022-12-29T08:26:35;8.98;55.63
70695;DHT22;58269;52.246;21.104;2022-12-29T08:28:36;8.68;53.57
70695;DHT22;58269;52.246;21.104;2022-12-29T08:30:38;8.44;53.21
70695;DHT22;58269;52.246;21.104;2022-12-29T08:32:39;8.20;59.15
70695;DHT22;58269;52.246;21.104;2022-12-29T08:34:41;8.05;55.30
70695;DHT22;58269;52.246;21.104;2022-12-29T08:36:42;7.89;60.11
70695;DHT22;58269;52.246;21.104;2022-12-29T08:38:44;7.72;61.94
70695;DHT22;58269;52.246;21.104;2022-12-29T08:40:45;7.59;57.84
70695;DHT22;58269;52.246;21.104;2022-12-29T08:42:47;7.51;60.46
70695;DHT22;58269;52.246;21.104;2022-12-29T08:44:48;7.48;63.27
70695;DHT22;58269;52.246;21.104;2022-12-29T08:46:50;8.22;65.18
70695;DHT22;58269;52.246;21.104;2022-12-29T08:48:53;9.08;64.83
70695;DHT22;58269;52.246;21.104;2022-12-29T08:50:54;9.67;63.13
70695;DHT22;58269;52.246;21.104;2022-12-29T08:52:55;10.11;63.25
70695;DHT22;58269;52.246;21.104;2022-12-29T08:54:57;10.39;61.56
70695;DHT22;58269;52.246;21.104;2022-12-29T08:56:58;10.46;56.92
70695;DHT22;58269;52.246;21.104;2022-12-29T08:59:02;10.07;55.78
70695;DHT22;58269;52.246;21.104;2022-12-29T09:01:05;9.61;56.07
70695;DHT22;58269;52.246;21.104;2022-12-29T09:03:07;9.25;56.30
70695;DHT22;58269;52.246;21.104;2022-12-29T09:05:08;8.95;58.61
70695;DHT22;58269;52.246;21.104;2022-12-29T09:07:10;8.74;56.27
70695;DHT22;58269;52.246;21.104;2022-12-29T09:09:12;8.58;57.57
70695;DHT22;58269;52.246;21.104;2022-12-29T09:11:20;8.44;58.85
70695;DHT22;58269;52.246;21.104;2022-12-29T09:13:21;8.32;57.35
70695;DHT22;58269;52.246;21.104;2022-12-29T09:15:23;8.22;59.70
70695;DHT22;58269;52.246;21.104;2022-12-29T09:17:24;8.13;60.82
70695;DHT22;58269;52.246;21.104;2022-12-29T09:19:44;8.04;59.57
70695;DHT22;58269;52.246;21.104;2022-12-29T09:21:45;7.95;61.02
70695;DHT22;58269;52.246;21.104;2022-12-29T09:23:47;7.86;61.25
70695;DHT22;58269;52.246;21.104;2022-12-29T09:25:49;7.84;61.28
70695;DHT22;58269;52.246;21.104;2022-12-29T09:27:51;7.78;61.06
70695;DHT22;58269;52.246;21.104;2022-12-29T09:29:54;7.75;62.17
70695;DHT22;58269;52.246;21.104;2022-12-29T09:31:55;7.74;60.93
70695;DHT22;58269;52.246;21.104;2022-12-29T09:33:57;7.74;62.44
70695;DHT22;58269;52.246;21.104;2022-12-29T09:35:58;7.72;60.75
70695;DHT22;58269;52.246;21.104;2022-12-29T09:38:00;7.75;62.13
70695;DHT22;58269;52.246;21.104;2022-12-29T09:40:02;8.20;61.18
70695;DHT22;58269;52.246;21.104;2022-12-29T09:44:23;9.38;58.51
70695;DHT22;58269;52.246;21.104;2022-12-29T09:48:36;8.92;58.47
70695;DHT22;58269;52.246;21.104;2022-12-29T09:50:38;8.71;59.13
70695;DHT22;58269;52.246;21.104;2022-12-29T09:52:47;8.54;58.97
70695;DHT22;58269;52.246;21.104;2022-12-29T09:54:56;8.41;59.94
70695;DHT22;58269;52.246;21.104;2022-12-29T09:56:58;8.33;60.27
70695;DHT22;58269;52.246;21.104;2022-12-29T09:59:04;8.27;59.81
70695;DHT22;58269;52.246;21.104;2022-12-29T10:01:08;8.22;60.83
70695;DHT22;58269;52.246;21.104;2022-12-29T10:03:15;8.19;60.43
70695;DHT22;58269;52.246;21.104;2022-12-29T10:07:38;8.12;59.84
70695;DHT22;58269;52.246;21.104;2022-12-29T10:14:36;8.06;61.50
70695;DHT22;58269;52.246;21.104;2022-12-29T10:18:48;8.04;61.88
70695;DHT22;58269;52.246;21.104;2022-12-29T10:21:32;8.01;61.04
70695;DHT22;58269;52.246;21.104;2022-12-29T10:23:29;8.01;61.76
70695;DHT22;58269;52.246;21.104;2022-12-29T10:25:31;8.01;62.32
70695;DHT22;58269;52.246;21.104;2022-12-29T10:27:33;8.01;61.18
70695;DHT22;58269;52.246;21.104;2022-12-29T10:29:37;8.02;61.86
70695;DHT22;58269;52.246;21.104;2022-12-29T10:31:46;8.01;61.78
70695;DHT22;58269;52.246;21.104;2022-12-29T10:33:50;8.02;61.79
70695;DHT22;58269;52.246;21.104;2022-12-29T10:35:53;7.99;61.44
70695;DHT22;58269;52.246;21.104;2022-12-29T10:40:33;8.02;60.72
70695;DHT22;58269;52.246;21.104;2022-12-29T10:42:37;7.98;61.07
70695;DHT22;58269;52.246;21.104;2022-12-29T10:44:39;7.99;61.21
70695;DHT22;58269;52.246;21.104;2022-12-29T10:46:41;8.04;61.32
70695;DHT22;58269;52.246;21.104;2022-12-29T10:48:43;8.01;61.24
70695;DHT22;58269;52.246;21.104;2022-12-29T10:50:48;8.01;61.46
70695;DHT22;58269;52.246;21.104;2022-12-29T10:52:51;8.04;60.82
70695;DHT22;58269;52.246;21.104;2022-12-29T10:55:05;8.02;61.23
70695;DHT22;58269;52.246;21.104;2022-12-29T10:57:09;8.05;61.68
70695;DHT22;58269;52.246;21.104;2022-12-29T10:59:21;8.08;61.46
70695;DHT22;58269;52.246;21.104;2022-12-29T11:01:25;8.10;61.05
70695;DHT22;58269;52.246;21.104;2022-12-29T11:06:12;8.10;60.80
70695;DHT22;58269;52.246;21.104;2022-12-29T11:08:16;8.12;61.38
70695;DHT22;58269;52.246;21.104;2022-12-29T11:10:20;8.19;61.46
70695;DHT22;58269;52.246;21.104;2022-12-29T11:12:29;8.20;60.86
70695;DHT22;58269;52.246;21.104;2022-12-29T11:14:31;8.19;60.82
70695;DHT22;58269;52.246;21.104;2022-12-29T11:16:33;8.23;60.41
70695;DHT22;58269;52.246;21.104;2022-12-29T11:18:39;8.25;60.36
70695;DHT22;58269;52.246;21.104;2022-12-29T11:20:43;8.25;60.48
70695;DHT22;58269;52.246;21.104;2022-12-29T11:22:44;8.26;60.68
70695;DHT22;58269;52.246;21.104;2022-12-29T11:24:47;8.29;60.36
70695;DHT22;58269;52.246;21.104;2022-12-29T11:26:54;8.27;60.65
70695;DHT22;58269;52.246;21.104;2022-12-29T11:31:17;8.36;61.21
70695;DHT22;58269;52.246;21.104;2022-12-29T11:33:19;8.39;60.48
70695;DHT22;58269;52.246;21.104;2022-12-29T11:35:41;8.43;60.16
70695;DHT22;58269;52.246;21.104;2022-12-29T11:37:43;8.43;60.60
70695;DHT22;58269;52.246;21.104;2022-12-29T11:41:58;8.48;60.53
70695;DHT22;58269;52.246;21.104;2022-12-29T11:44:02;8.48;60.72
70695;DHT22;58269;52.246;21.104;2022-12-29T11:46:05;8.54;60.15
70695;DHT22;58269;52.246;21.104;2022-12-29T11:48:18;8.51;60.18
70695;DHT22;58269;52.246;21.104;2022-12-29T11:50:28;8.57;60.13
70695;DHT22;58269;52.246;21.104;2022-12-29T11:52:35;8.58;60.26
70695;DHT22;58269;52.246;21.104;2022-12-29T11:54:39;8.54;60.38
70695;DHT22;58269;52.246;21.104;2022-12-29T11:56:42;8.57;60.78
70695;DHT22;58269;52.246;21.104;2022-12-29T11:58:44;8.63;60.67
70695;DHT22;58269;52.246;21.104;2022-12-29T12:00:46;8.65;60.51
70695;DHT22;58269;52.246;21.104;2022-12-29T12:07:46;8.67;60.27
70695;DHT22;58269;52.246;21.104;2022-12-29T12:09:51;8.71;60.32
70695;DHT22;58269;52.246;21.104;2022-12-29T12:11:56;8.69;60.31
70695;DHT22;58269;52.246;21.104;2022-12-29T12:16:52;8.74;60.22
70695;DHT22;58269;52.246;21.104;2022-12-29T12:18:56;8.75;60.45
70695;DHT22;58269;52.246;21.104;2022-12-29T12:21:05;8.78;60.40
70695;DHT22;58269;52.246;21.104;2022-12-29T12:25:34;8.82;60.77
70695;DHT22;58269;52.246;21.104;2022-12-29T12:30:17;8.86;60.88
70695;DHT22;58269;52.246;21.104;2022-12-29T12:34:35;8.90;60.67
70695;DHT22;58269;52.246;21.104;2022-12-29T12:36:55;8.88;60.78
70695;DHT22;58269;52.246;21.104;2022-12-29T12:39:18;8.92;60.36
70695;DHT22;58269;52.246;21.104;2022-12-29T12:41:39;8.91;60.43
70695;DHT22;58269;52.246;21.104;2022-12-29T12:43:49;8.95;60.52
70695;DHT22;58269;52.246;21.104;2022-12-29T12:48:40;8.99;60.86
70695;DHT22;58269;52.246;21.104;2022-12-29T13:02:02;9.08;60.55
70695;DHT22;58269;52.246;21.104;2022-12-29T13:08:49;9.11;60.58
70695;DHT22;58269;52.246;21.104;2022-12-29T13:10:54;9.15;60.33
70695;DHT22;58269;52.246;21.104;2022-12-29T13:22:38;9.18;60.60
70695;DHT22;58269;52.246;21.104;2022-12-29T13:31:58;9.22;61.00
70695;DHT22;58269;52.246;21.104;2022-12-29T13:34:09;9.26;60.55
70695;DHT22;58269;52.246;21.104;2022-12-29T13:36:30;9.28;60.62
70695;DHT22;58269;52.246;21.104;2022-12-29T13:38:42;9.30;60.23
70695;DHT22;58269;52.246;21.104;2022-12-29T13:40:45;9.26;60.55
70695;DHT22;58269;52.246;21.104;2022-12-29T13:42:48;9.29;60.49
70695;DHT22;58269;52.246;21.104;2022-12-29T13:45:05;9.29;60.41
70695;DHT22;58269;52.246;21.104;2022-12-29T13:47:31;9.33;60.28
70695;DHT22;58269;52.246;21.104;2022-12-29T13:49:32;9.30;60.45
70695;DHT22;58269;52.246;21.104;2022-12-29T13:51:34;9.33;60.63
70695;DHT22;58269;52.246;21.104;2022-12-29T13:53:45;9.33;60.42
70695;DHT22;58269;52.246;21.104;2022-12-29T13:55:51;9.38;60.60
70695;DHT22;58269;52.246;21.104;2022-12-29T13:58:18;9.39;60.37
70695;DHT22;58269;52.246;21.104;2022-12-29T14:00:16;9.39;60.40
70695;DHT22;58269;52.246;21.104;2022-12-29T14:03:17;9.43;60.05
70695;DHT22;58269;52.246;21.104;2022-12-29T14:04:30;9.42;60.13
70695;DHT22;58269;52.246;21.104;2022-12-29T14:06:35;9.43;60.01
70695;DHT22;58269;52.246;21.104;2022-12-29T14:08:38;9.42;60.25
70695;DHT22;58269;52.246;21.104;2022-12-29T14:10:48;9.45;60.20
70695;DHT22;58269;52.246;21.104;2022-12-29T14:12:49;9.46;60.42
70695;DHT22;58269;52.246;21.104;2022-12-29T14:14:51;9.46;60.37
70695;DHT22;58269;52.246;21.104;2022-12-29T14:16:53;9.49;60.07
70695;DHT22;58269;52.246;21.104;2022-12-29T14:18:56;9.47;60.44
70695;DHT22;58269;52.246;21.104;2022-12-29T14:21:04;9.51;60.60
70695;DHT22;58269;52.246;21.104;2022-12-29T14:27:43;9.57;59.83
70695;DHT22;58269;52.246;21.104;2022-12-29T14:29:46;9.56;60.16
70695;DHT22;58269;52.246;21.104;2022-12-29T14:31:49;9.54;60.38
70695;DHT22;58269;52.246;21.104;2022-12-29T14:36:55;9.56;60.14
70695;DHT22;58269;52.246;21.104;2022-12-29T14:38:30;9.56;60.36
70695;DHT22;58269;52.246;21.104;2022-12-29T14:40:32;9.59;60.55
70695;DHT22;58269;52.246;21.104;2022-12-29T14:42:34;9.60;60.10
70695;DHT22;58269;52.246;21.104;2022-12-29T14:44:50;9.60;60.07
70695;DHT22;58269;52.246;21.104;2022-12-29T14:46:58;9.59;60.06
70695;DHT22;58269;52.246;21.104;2022-12-29T14:49:00;9.60;59.96
70695;DHT22;58269;52.246;21.104;2022-12-29T14:51:25;9.61;59.87